Time;durP1;ratioP1;P1;durP2;ratioP2;P2;SDS_P1;SDS_P2;PMS_P1;PMS_P2;Temp;Humidity;BMP_temperature;BMP_pressure;BME280_temperature;BME280_humidity;BME280_pressure;Samples;Min_cycle;Max_cycle;Signal;HPM_P1;HPM_P2
2023/07/18 00:02:11;;;;;;;4.25;1.42;;;16.60;99.90;;;;;;5078225;28;20052;-66
2023/07/18 00:04:39;;;;;;;1.70;0.80;;;16.50;99.90;;;;;;5082381;28;20040;-64
2023/07/18 00:07:07;;;;;;;3.33;2.42;;;16.50;99.90;;;;;;5078178;28;20106;-67
2023/07/18 00:09:37;;;;;;;5.57;1.70;;;16.50;99.90;;;;;;5080967;28;20059;-64
2023/07/18 00:12:05;;;;;;;3.75;1.65;;;16.50;99.90;;;;;;5079736;28;20075;-65
2023/07/18 00:14:33;;;;;;;1.38;1.17;;;16.50;99.90;;;;;;5079546;28;20495;-65
2023/07/18 00:16:59;;;;;;;3.97;1.23;;;16.40;99.90;;;;;;5079993;28;20071;-63
2023/07/18 00:19:27;;;;;;;2.72;1.92;;;16.40;99.90;;;;;;5074331;28;20114;-65
2023/07/18 00:21:55;;;;;;;2.60;1.27;;;16.30;99.90;;;;;;5075157;28;20051;-65
2023/07/18 00:24:22;;;;;;;6.55;1.27;;;16.30;99.90;;;;;;5077755;28;20075;-64
2023/07/18 00:26:49;;;;;;;5.82;1.92;;;16.30;99.90;;;;;;5073072;28;20047;-65
2023/07/18 00:29:16;;;;;;;4.35;1.63;;;16.20;99.90;;;;;;5075481;28;20047;-66
2023/07/18 00:31:44;;;;;;;4.75;1.30;;;16.20;99.90;;;;;;5079610;28;20039;-65
2023/07/18 00:34:11;;;;;;;4.38;1.35;;;16.20;99.90;;;;;;5076056;28;20472;-64
2023/07/18 00:36:38;;;;;;;3.10;1.45;;;16.10;99.90;;;;;;5076898;28;20040;-64
2023/07/18 00:39:05;;;;;;;2.72;1.00;;;16.10;99.90;;;;;;5076354;28;20763;-65
2023/07/18 00:41:32;;;;;;;3.97;2.20;;;16.00;99.90;;;;;;5075499;28;20039;-65
2023/07/18 00:44:00;;;;;;;2.13;1.77;;;16.00;99.90;;;;;;5077078;28;20048;-64
2023/07/18 00:46:28;;;;;;;5.35;1.45;;;16.00;99.90;;;;;;5079843;28;20056;-65
2023/07/18 00:48:56;;;;;;;5.72;1.52;;;15.90;99.90;;;;;;5079924;28;20112;-64
2023/07/18 00:51:25;;;;;;;14.30;2.50;;;15.90;99.90;;;;;;5075163;28;20505;-64
2023/07/18 00:53:53;;;;;;;7.63;2.65;;;15.90;99.90;;;;;;5056659;28;20057;-64
2023/07/18 00:56:20;;;;;;;6.53;2.67;;;15.90;99.90;;;;;;5077926;28;20068;-64
2023/07/18 00:58:47;;;;;;;8.07;1.55;;;15.90;99.90;;;;;;5065440;28;20059;-64
2023/07/18 01:01:14;;;;;;;4.32;1.45;;;15.90;99.90;;;;;;5078638;28;20089;-66
2023/07/18 01:03:41;;;;;;;4.88;1.42;;;15.80;99.90;;;;;;5077449;28;20148;-64
2023/07/18 01:06:09;;;;;;;3.85;1.40;;;15.80;99.90;;;;;;5072965;28;20571;-65
2023/07/18 01:08:37;;;;;;;4.80;1.95;;;15.80;99.90;;;;;;5077072;28;20045;-65
2023/07/18 01:11:07;;;;;;;6.75;2.03;;;15.70;99.90;;;;;;5077327;28;20044;-66
2023/07/18 01:13:34;;;;;;;8.93;2.28;;;15.70;99.90;;;;;;5078604;28;20040;-64
2023/07/18 01:16:01;;;;;;;4.25;1.90;;;15.60;99.90;;;;;;5073294;28;20375;-65
2023/07/18 01:18:31;;;;;;;4.25;1.92;;;15.60;99.90;;;;;;5079444;28;20063;-65
2023/07/18 01:21:00;;;;;;;4.57;1.52;;;15.60;99.90;;;;;;5076221;28;20113;-65
2023/07/18 01:23:28;;;;;;;4.65;1.50;;;15.60;99.90;;;;;;5078938;28;20136;-64
2023/07/18 01:25:55;;;;;;;8.07;2.08;;;15.50;99.90;;;;;;5057791;28;20048;-65
2023/07/18 01:28:22;;;;;;;6.30;1.92;;;15.50;99.90;;;;;;5074522;28;20032;-65
2023/07/18 01:30:49;;;;;;;4.00;1.45;;;15.50;99.90;;;;;;5074601;28;20060;-65
2023/07/18 01:33:17;;;;;;;4.72;0.90;;;15.50;99.90;;;;;;5074513;28;20513;-66
2023/07/18 01:35:45;;;;;;;3.00;1.75;;;15.50;99.90;;;;;;5076765;28;20043;-64
2023/07/18 01:38:13;;;;;;;8.45;1.92;;;15.50;99.90;;;;;;5062153;28;20124;-66
2023/07/18 01:40:40;;;;;;;5.00;2.08;;;15.50;99.90;;;;;;5053997;28;20050;-67
2023/07/18 01:43:07;;;;;;;5.47;2.25;;;15.40;99.90;;;;;;5076758;28;20373;-64
2023/07/18 01:45:37;;;;;;;4.90;1.90;;;15.40;99.90;;;;;;5057664;28;20044;-64
2023/07/18 01:48:04;;;;;;;4.35;1.38;;;15.40;99.90;;;;;;5075716;28;20059;-66
2023/07/18 01:50:32;;;;;;;3.67;1.48;;;15.40;99.90;;;;;;5068254;28;20379;-65
2023/07/18 01:52:59;;;;;;;6.53;1.92;;;15.30;99.90;;;;;;5077401;28;20040;-66
2023/07/18 01:55:27;;;;;;;8.15;2.47;;;15.40;99.90;;;;;;5069630;28;20233;-65
2023/07/18 01:57:55;;;;;;;5.75;2.58;;;15.40;99.90;;;;;;5056474;28;20505;-64
2023/07/18 02:00:24;;;;;;;4.80;1.55;;;15.40;99.90;;;;;;5063069;28;20042;-64
2023/07/18 02:02:52;;;;;;;3.97;2.20;;;15.30;99.90;;;;;;5074645;28;20079;-64
2023/07/18 02:05:23;;;;;;;4.28;1.77;;;15.30;99.90;;;;;;5078379;28;20052;-65
2023/07/18 02:07:50;;;;;;;5.53;1.55;;;15.40;99.90;;;;;;5073968;28;20075;-65
2023/07/18 02:10:20;;;;;;;5.53;1.70;;;15.40;99.90;;;;;;5062560;28;20144;-65
2023/07/18 02:12:48;;;;;;;4.07;2.30;;;15.30;99.90;;;;;;5073963;28;20354;-66
2023/07/18 02:15:15;;;;;;;9.98;2.25;;;15.30;99.90;;;;;;5078041;28;20163;-64
2023/07/18 02:17:42;;;;;;;4.82;1.90;;;15.30;99.90;;;;;;5054673;28;20059;-65
2023/07/18 02:20:11;;;;;;;7.72;2.25;;;15.30;99.90;;;;;;5072628;28;20466;-65
2023/07/18 02:22:41;;;;;;;6.20;1.92;;;15.30;99.90;;;;;;5081052;28;20567;-64
2023/07/18 02:25:09;;;;;;;6.75;2.13;;;15.20;99.90;;;;;;5077890;28;20633;-65
2023/07/18 02:27:39;;;;;;;3.63;1.80;;;15.20;99.90;;;;;;5061103;28;20044;-64
2023/07/18 02:30:11;;;;;;;6.00;2.00;;;15.20;99.90;;;;;;5077724;28;20138;-65
2023/07/18 02:32:42;;;;;;;4.95;2.22;;;15.20;99.90;;;;;;5077742;28;20047;-65
2023/07/18 02:35:17;;;;;;;7.85;2.50;;;15.30;99.90;;;;;;5066060;28;20066;-64
2023/07/18 02:37:45;;;;;;;8.77;2.67;;;15.30;99.90;;;;;;5071997;28;20094;-64
2023/07/18 02:40:14;;;;;;;4.75;2.17;;;15.30;99.90;;;;;;5076414;28;20048;-66
2023/07/18 02:42:41;;;;;;;4.03;2.00;;;15.30;99.90;;;;;;5074530;28;20090;-67
2023/07/18 02:45:08;;;;;;;6.55;2.28;;;15.30;99.90;;;;;;5062885;28;20064;-65
2023/07/18 02:47:38;;;;;;;7.40;2.53;;;15.30;99.90;;;;;;5078679;28;20076;-65
2023/07/18 02:50:06;;;;;;;7.82;1.55;;;15.30;99.90;;;;;;5074935;28;20749;-65
2023/07/18 02:52:34;;;;;;;5.60;2.35;;;15.30;99.90;;;;;;5073038;28;20490;-64
2023/07/18 02:55:01;;;;;;;5.95;1.77;;;15.30;99.90;;;;;;5077239;28;20040;-66
2023/07/18 02:57:27;;;;;;;2.45;1.75;;;15.30;99.90;;;;;;5069879;28;20057;-66
2023/07/18 02:59:54;;;;;;;7.45;2.17;;;15.30;99.90;;;;;;5076550;28;20044;-65
2023/07/18 03:02:21;;;;;;;6.15;2.58;;;15.30;99.90;;;;;;5080540;28;20052;-65
2023/07/18 03:04:48;;;;;;;4.85;2.30;;;15.30;99.90;;;;;;5072993;28;20557;-64
2023/07/18 03:07:17;;;;;;;2.97;1.83;;;15.30;99.90;;;;;;5075673;28;20066;-65
2023/07/18 03:09:45;;;;;;;8.73;2.75;;;15.40;99.90;;;;;;5079284;28;20068;-65
2023/07/18 03:12:13;;;;;;;3.55;1.55;;;15.40;99.90;;;;;;5075564;28;20047;-65
2023/07/18 03:14:40;;;;;;;4.07;1.67;;;15.40;99.90;;;;;;5076725;28;20297;-65
2023/07/18 03:17:07;;;;;;;3.35;1.95;;;15.40;99.90;;;;;;5065555;28;20151;-64
2023/07/18 03:19:34;;;;;;;6.38;1.45;;;15.50;99.90;;;;;;5074742;28;20048;-67
2023/07/18 03:22:01;;;;;;;4.45;2.15;;;15.50;99.90;;;;;;5078978;28;20398;-65
2023/07/18 03:24:28;;;;;;;4.68;1.80;;;15.50;99.90;;;;;;5074547;28;20855;-65
2023/07/18 03:26:55;;;;;;;10.93;2.45;;;15.50;99.90;;;;;;5076967;28;20052;-64
2023/07/18 03:29:23;;;;;;;3.47;2.10;;;15.50;99.90;;;;;;5076234;28;20076;-64
2023/07/18 03:31:50;;;;;;;6.88;2.47;;;15.50;99.90;;;;;;5082138;28;20426;-64
2023/07/18 03:34:17;;;;;;;7.55;2.22;;;15.50;99.90;;;;;;5077683;28;20390;-66
2023/07/18 03:36:45;;;;;;;5.55;2.17;;;15.50;99.90;;;;;;5078261;28;20063;-65
2023/07/18 03:39:13;;;;;;;11.88;2.40;;;15.50;99.90;;;;;;5084852;28;20139;-65
2023/07/18 03:41:41;;;;;;;11.35;2.72;;;15.50;99.90;;;;;;5079963;28;20139;-65
2023/07/18 03:44:08;;;;;;;4.13;2.47;;;15.50;99.90;;;;;;5079979;28;20056;-65
2023/07/18 03:46:35;;;;;;;7.15;2.15;;;15.50;99.90;;;;;;5075926;28;20048;-70
2023/07/18 03:49:02;;;;;;;5.32;2.65;;;15.50;99.90;;;;;;5078474;28;20579;-67
2023/07/18 03:51:29;;;;;;;4.25;1.85;;;15.50;99.90;;;;;;5072986;28;20527;-64
2023/07/18 03:54:03;;;;;;;4.60;2.13;;;15.60;99.90;;;;;;5079904;28;20040;-65
2023/07/18 03:56:30;;;;;;;3.15;1.40;;;15.50;99.90;;;;;;5078036;28;20068;-65
2023/07/18 03:58:58;;;;;;;5.22;1.38;;;15.50;99.90;;;;;;5076801;28;20040;-65
2023/07/18 04:01:25;;;;;;;7.82;1.55;;;15.50;99.90;;;;;;5073184;28;20039;-65
2023/07/18 04:03:52;;;;;;;6.05;1.70;;;15.40;99.90;;;;;;5080810;28;20059;-65
2023/07/18 04:06:20;;;;;;;5.78;1.88;;;15.50;99.90;;;;;;5075447;28;20549;-64
2023/07/18 04:08:47;;;;;;;7.35;3.40;;;15.40;99.90;;;;;;5079513;28;20040;-65
2023/07/18 04:11:13;;;;;;;3.70;1.63;;;15.50;99.90;;;;;;5081183;28;20056;-68
2023/07/18 04:13:40;;;;;;;7.13;2.75;;;15.40;99.90;;;;;;5078683;28;20033;-66
2023/07/18 04:16:07;;;;;;;7.32;1.77;;;15.50;99.90;;;;;;5075466;28;20103;-67
2023/07/18 04:18:34;;;;;;;4.80;2.03;;;15.40;99.90;;;;;;5076096;28;20569;-64
2023/07/18 04:21:02;;;;;;;4.78;2.15;;;15.40;99.90;;;;;;5079089;28;20124;-64
2023/07/18 04:23:29;;;;;;;4.63;1.85;;;15.50;99.90;;;;;;5077960;28;20137;-65
2023/07/18 04:25:58;;;;;;;2.80;2.05;;;15.50;99.90;;;;;;5076674;28;20151;-64
2023/07/18 04:28:27;;;;;;;4.47;1.85;;;15.50;99.90;;;;;;5079319;28;20083;-63
2023/07/18 04:30:55;;;;;;;5.13;1.77;;;15.50;99.90;;;;;;5081497;28;20085;-67
2023/07/18 04:33:22;;;;;;;3.08;1.50;;;15.50;99.90;;;;;;5076742;28;20082;-65
2023/07/18 04:35:49;;;;;;;5.05;1.63;;;15.50;99.90;;;;;;5083641;28;20071;-64
2023/07/18 04:38:16;;;;;;;4.65;2.05;;;15.50;99.90;;;;;;5078964;28;20490;-66
2023/07/18 04:40:43;;;;;;;3.40;1.77;;;15.50;99.90;;;;;;5079667;28;20775;-67
2023/07/18 04:43:10;;;;;;;3.70;2.10;;;15.40;99.90;;;;;;5076966;28;20044;-64
2023/07/18 04:45:46;;;;;;;10.10;2.63;;;15.40;99.90;;;;;;5078975;28;20052;-64
2023/07/18 04:48:18;;;;;;;8.50;2.25;;;15.50;99.90;;;;;;5080464;28;20047;-64
2023/07/18 04:50:46;;;;;;;3.60;1.55;;;15.40;99.90;;;;;;5077630;28;20036;-64
2023/07/18 04:53:13;;;;;;;2.50;1.65;;;15.50;99.90;;;;;;5076558;28;20041;-67
2023/07/18 04:55:40;;;;;;;4.35;2.00;;;15.40;99.90;;;;;;5064388;28;20232;-64
2023/07/18 04:58:08;;;;;;;9.00;2.42;;;15.50;99.90;;;;;;5080917;28;20040;-64
2023/07/18 05:00:35;;;;;;;5.57;1.33;;;15.40;99.90;;;;;;5078016;28;20075;-67
2023/07/18 05:03:02;;;;;;;6.03;1.58;;;15.40;99.90;;;;;;5075334;28;20040;-64
2023/07/18 05:05:30;;;;;;;6.47;2.15;;;15.40;99.90;;;;;;5075532;28;20044;-64
2023/07/18 05:08:01;;;;;;;7.55;2.20;;;15.40;99.90;;;;;;5075363;28;20124;-64
2023/07/18 05:10:29;;;;;;;5.85;1.73;;;15.40;99.90;;;;;;5077849;28;20060;-64
2023/07/18 05:12:57;;;;;;;5.78;1.88;;;15.40;99.90;;;;;;5081835;28;20055;-65
2023/07/18 05:15:24;;;;;;;2.55;1.80;;;15.40;99.90;;;;;;5081681;28;20041;-64
2023/07/18 05:17:51;;;;;;;6.22;2.35;;;15.40;99.90;;;;;;5076668;28;20606;-64
2023/07/18 05:20:19;;;;;;;7.40;2.58;;;15.50;99.90;;;;;;5076610;28;20038;-65
2023/07/18 05:22:46;;;;;;;6.95;1.70;;;15.50;99.90;;;;;;5080825;28;20028;-64
2023/07/18 05:25:15;;;;;;;3.00;1.13;;;15.50;99.90;;;;;;5077503;28;20079;-64
2023/07/18 05:27:42;;;;;;;6.55;1.63;;;15.50;99.90;;;;;;5078580;28;20144;-65
2023/07/18 05:30:15;;;;;;;6.80;2.47;;;15.60;99.90;;;;;;5076055;28;20139;-64
2023/07/18 05:32:44;;;;;;;6.90;2.60;;;15.60;99.90;;;;;;5074348;28;20117;-64
2023/07/18 05:35:14;;;;;;;2.95;1.38;;;15.60;99.90;;;;;;5075817;28;20386;-64
2023/07/18 05:37:41;;;;;;;4.53;1.50;;;15.60;99.90;;;;;;5075329;28;20059;-65
2023/07/18 05:40:12;;;;;;;2.85;1.67;;;15.60;99.90;;;;;;5082602;28;20281;-65
2023/07/18 05:42:40;;;;;;;7.13;1.73;;;15.70;99.90;;;;;;5076400;28;20049;-64
2023/07/18 05:45:09;;;;;;;8.27;2.63;;;15.70;99.90;;;;;;5077557;28;20213;-64
2023/07/18 05:47:37;;;;;;;1.92;1.10;;;15.80;99.90;;;;;;5079910;28;20048;-64
2023/07/18 05:50:06;;;;;;;6.23;2.57;;;15.80;99.90;;;;;;5075416;28;20378;-65
2023/07/18 05:52:34;;;;;;;3.38;1.88;;;15.80;99.90;;;;;;5076539;28;20094;-64
2023/07/18 05:55:02;;;;;;;6.15;1.67;;;15.80;99.90;;;;;;5072425;28;20058;-67
2023/07/18 05:57:30;;;;;;;4.95;2.00;;;15.80;99.90;;;;;;5074204;28;20470;-64
2023/07/18 05:59:57;;;;;;;2.28;1.77;;;15.80;99.90;;;;;;5073160;28;20482;-65
2023/07/18 06:02:24;;;;;;;6.03;2.25;;;15.70;99.90;;;;;;5076583;28;20562;-65
2023/07/18 06:04:51;;;;;;;5.68;2.20;;;15.80;99.90;;;;;;5075630;28;20037;-64
2023/07/18 06:07:18;;;;;;;9.45;2.25;;;15.80;99.90;;;;;;5075190;28;20040;-66
2023/07/18 06:09:45;;;;;;;8.27;1.98;;;15.80;99.90;;;;;;5074604;28;20774;-65
2023/07/18 06:12:12;;;;;;;6.50;1.73;;;15.80;99.90;;;;;;5078027;28;20045;-65
2023/07/18 06:14:39;;;;;;;6.43;1.40;;;15.80;99.90;;;;;;5073376;28;20167;-65
2023/07/18 06:17:07;;;;;;;4.38;1.63;;;15.80;99.90;;;;;;5078639;28;20482;-65
2023/07/18 06:19:34;;;;;;;3.00;1.42;;;15.80;99.90;;;;;;5078442;28;20742;-65
2023/07/18 06:22:02;;;;;;;2.45;1.58;;;15.90;99.90;;;;;;5077044;28;20047;-64
2023/07/18 06:24:29;;;;;;;9.60;2.72;;;15.80;99.90;;;;;;5076818;28;20044;-65
2023/07/18 06:26:56;;;;;;;5.90;2.00;;;15.80;99.90;;;;;;5078457;28;20060;-64
2023/07/18 06:29:24;;;;;;;4.43;2.80;;;15.80;99.90;;;;;;5075244;28;20056;-64
2023/07/18 06:31:51;;;;;;;4.68;1.92;;;15.80;99.90;;;;;;5080116;28;20040;-67
2023/07/18 06:34:17;;;;;;;4.88;2.22;;;15.90;99.90;;;;;;5077951;28;20083;-65
2023/07/18 06:36:45;;;;;;;3.50;1.50;;;15.90;99.90;;;;;;5072289;28;20071;-65
2023/07/18 06:39:13;;;;;;;4.93;2.20;;;15.90;99.90;;;;;;5076175;28;20110;-64
2023/07/18 06:41:41;;;;;;;4.90;1.80;;;15.90;99.90;;;;;;5075601;28;20039;-65
2023/07/18 06:44:11;;;;;;;4.65;1.65;;;15.90;99.90;;;;;;5061409;28;20394;-64
2023/07/18 06:46:38;;;;;;;5.07;1.85;;;16.00;99.90;;;;;;5081266;28;20474;-66
2023/07/18 06:49:09;;;;;;;3.80;1.58;;;16.00;99.90;;;;;;5078586;28;20055;-65
2023/07/18 06:51:36;;;;;;;4.72;1.50;;;16.00;99.90;;;;;;5079417;28;20072;-64
2023/07/18 06:54:02;;;;;;;12.07;2.42;;;16.10;99.90;;;;;;5078661;28;20052;-67
2023/07/18 06:56:29;;;;;;;5.93;2.25;;;16.10;99.90;;;;;;5083580;28;20067;-65
2023/07/18 06:58:56;;;;;;;6.38;1.58;;;16.20;99.90;;;;;;5079157;28;20124;-65
2023/07/18 07:01:23;;;;;;;7.30;2.33;;;16.20;99.90;;;;;;5076241;28;20149;-65
2023/07/18 07:03:50;;;;;;;5.63;1.90;;;16.20;99.90;;;;;;5074349;28;20044;-65
2023/07/18 07:06:20;;;;;;;4.68;2.15;;;16.10;99.90;;;;;;5076492;28;20085;-67
2023/07/18 07:08:46;;;;;;;3.47;1.65;;;16.20;99.90;;;;;;5075393;28;20048;-65
2023/07/18 07:11:13;;;;;;;3.63;1.60;;;16.30;99.90;;;;;;5074420;28;20053;-65
2023/07/18 07:13:40;;;;;;;2.60;1.33;;;16.30;99.90;;;;;;5072263;28;20127;-64
2023/07/18 07:16:07;;;;;;;5.80;1.80;;;16.30;99.90;;;;;;5073587;28;20044;-65
2023/07/18 07:18:34;;;;;;;5.65;1.95;;;16.40;99.90;;;;;;5072107;28;20048;-65
2023/07/18 07:21:02;;;;;;;6.25;1.83;;;16.40;99.90;;;;;;5058049;28;20402;-64
2023/07/18 07:23:29;;;;;;;7.07;2.45;;;16.40;99.90;;;;;;5071212;28;20052;-64
2023/07/18 07:25:56;;;;;;;6.70;2.05;;;16.50;99.90;;;;;;5080897;28;21658;-65
2023/07/18 07:28:23;;;;;;;5.88;1.42;;;16.60;99.90;;;;;;5080104;28;20410;-65
2023/07/18 07:30:51;;;;;;;3.53;1.48;;;16.60;99.90;;;;;;5077073;28;20047;-67
2023/07/18 07:33:19;;;;;;;2.72;1.80;;;16.80;99.90;;;;;;5065007;28;20111;-64
2023/07/18 07:35:46;;;;;;;5.00;2.20;;;16.70;99.90;;;;;;5081643;28;20031;-65
2023/07/18 07:38:14;;;;;;;7.18;1.30;;;16.80;99.90;;;;;;5073963;28;20044;-66
2023/07/18 07:40:41;;;;;;;3.20;1.77;;;16.80;99.90;;;;;;5077733;28;20040;-64
2023/07/18 07:43:09;;;;;;;5.22;2.08;;;16.80;99.90;;;;;;5075663;28;20047;-65
2023/07/18 07:45:35;;;;;;;3.90;1.90;;;16.80;99.90;;;;;;5075549;28;20067;-67
2023/07/18 07:48:03;;;;;;;4.03;1.40;;;16.80;99.90;;;;;;5075620;28;20401;-65
2023/07/18 07:50:33;;;;;;;4.47;1.42;;;16.70;99.90;;;;;;5078066;28;20054;-65
2023/07/18 07:53:00;;;;;;;;;;;16.80;99.90;;;;;;5079720;28;20482;-65
2023/07/18 07:55:28;;;;;;;3.75;1.38;;;16.80;99.90;;;;;;5072510;28;20013;-66
2023/07/18 07:57:54;;;;;;;6.80;2.45;;;16.80;99.90;;;;;;5076983;28;20431;-64
2023/07/18 08:00:21;;;;;;;9.95;2.75;;;16.80;99.90;;;;;;5068693;28;20048;-65
2023/07/18 08:02:48;;;;;;;3.88;1.63;;;16.80;99.90;;;;;;5075217;28;20122;-65
2023/07/18 08:05:15;;;;;;;8.27;1.48;;;16.90;99.90;;;;;;5069905;28;20033;-65
2023/07/18 08:07:43;;;;;;;10.13;1.95;;;16.90;99.90;;;;;;5074946;28;20052;-66
2023/07/18 08:10:10;;;;;;;4.85;1.42;;;16.80;99.90;;;;;;5077776;28;20203;-64
2023/07/18 08:12:38;;;;;;;1.75;1.20;;;16.90;99.90;;;;;;5073850;28;20047;-65
2023/07/18 08:15:05;;;;;;;5.95;2.20;;;17.00;99.90;;;;;;5068701;28;20068;-65
2023/07/18 08:17:32;;;;;;;2.55;1.27;;;17.10;99.90;;;;;;5079958;28;20474;-65
2023/07/18 08:19:59;;;;;;;5.30;2.47;;;17.10;99.90;;;;;;5077799;28;20047;-65
2023/07/18 08:22:26;;;;;;;2.67;1.70;;;17.20;99.90;;;;;;5071936;28;20072;-64
2023/07/18 08:24:53;;;;;;;3.25;1.52;;;17.30;99.90;;;;;;5079116;28;20044;-65
2023/07/18 08:27:20;;;;;;;2.28;1.40;;;17.20;99.90;;;;;;5079714;28;20037;-66
2023/07/18 08:29:47;;;;;;;7.97;1.88;;;17.20;99.90;;;;;;5075916;28;20486;-65
2023/07/18 08:32:14;;;;;;;7.65;1.80;;;17.30;99.90;;;;;;5076458;28;20119;-65
2023/07/18 08:34:41;;;;;;;3.35;1.33;;;17.40;99.90;;;;;;5076317;28;20044;-65
2023/07/18 08:37:09;;;;;;;3.80;1.25;;;17.40;99.90;;;;;;5076934;28;20351;-65
2023/07/18 08:39:39;;;;;;;3.58;1.60;;;17.40;99.90;;;;;;5057469;28;20127;-65
2023/07/18 08:42:06;;;;;;;4.25;1.17;;;17.50;99.90;;;;;;5076147;28;20359;-64
2023/07/18 08:44:35;;;;;;;5.30;1.45;;;17.50;99.90;;;;;;5072773;28;20041;-64
2023/07/18 08:47:06;;;;;;;3.15;1.90;;;17.50;99.90;;;;;;5076801;28;20429;-64
2023/07/18 08:49:35;;;;;;;1.67;1.38;;;17.50;99.90;;;;;;5076159;28;20150;-66
2023/07/18 08:52:04;;;;;;;4.15;2.00;;;17.50;99.90;;;;;;5079120;28;20117;-64
2023/07/18 08:54:34;;;;;;;1.58;1.42;;;17.50;99.90;;;;;;5075340;28;20044;-65
2023/07/18 08:57:02;;;;;;;4.22;1.52;;;17.50;99.90;;;;;;5075577;28;20478;-65
2023/07/18 08:59:30;;;;;;;3.22;1.73;;;17.70;99.90;;;;;;5072828;28;20052;-65
2023/07/18 09:01:57;;;;;;;2.67;1.23;;;17.70;99.90;;;;;;5080422;28;20705;-64
2023/07/18 09:04:24;;;;;;;5.65;1.90;;;17.80;99.90;;;;;;5071786;28;20047;-64
2023/07/18 09:06:59;;;;;;;4.10;1.90;;;17.90;99.90;;;;;;5079647;28;20131;-66
2023/07/18 09:09:26;;;;;;;2.47;1.65;;;17.90;99.90;;;;;;5078575;28;20113;-65
2023/07/18 09:12:03;;;;;;;5.88;2.40;;;18.10;99.90;;;;;;5079535;28;20081;-65
2023/07/18 09:14:33;;;;;;;3.25;1.58;;;18.20;99.90;;;;;;5072775;28;20047;-65
2023/07/18 09:17:05;;;;;;;3.97;2.78;;;18.30;99.90;;;;;;5077822;28;20044;-67
2023/07/18 09:19:43;;;;;;;4.40;1.20;;;18.10;99.90;;;;;;5079923;28;20549;-66
2023/07/18 09:22:16;;;;;;;2.25;1.60;;;18.20;99.90;;;;;;5075287;28;20041;-68
2023/07/18 09:24:44;;;;;;;3.72;1.42;;;18.20;99.90;;;;;;5062336;28;20044;-65
2023/07/18 09:27:16;;;;;;;4.78;1.67;;;18.40;99.90;;;;;;5071897;28;20036;-66
2023/07/18 09:29:45;;;;;;;5.88;1.58;;;18.40;99.90;;;;;;5076285;28;20086;-67
2023/07/18 09:32:19;;;;;;;12.40;1.92;;;18.30;99.90;;;;;;5079089;28;20489;-65
2023/07/18 09:34:55;;;;;;;6.53;1.73;;;18.50;99.90;;;;;;5075014;28;20060;-64
2023/07/18 09:37:23;;;;;;;3.45;1.35;;;18.50;99.90;;;;;;5080352;28;20055;-64
2023/07/18 09:39:50;;;;;;;4.22;1.42;;;18.50;99.90;;;;;;5078645;28;20047;-65
2023/07/18 09:42:19;;;;;;;4.70;2.22;;;18.60;99.90;;;;;;5078743;28;20143;-68
2023/07/18 09:44:49;;;;;;;6.43;1.75;;;18.60;99.90;;;;;;5076529;28;20045;-65
2023/07/18 09:47:20;;;;;;;2.70;1.98;;;18.60;99.90;;;;;;5070463;28;20044;-65
2023/07/18 09:49:47;;;;;;;3.67;1.63;;;18.70;99.90;;;;;;5072352;28;20497;-64
2023/07/18 09:52:18;;;;;;;7.18;2.05;;;18.80;99.90;;;;;;5078124;28;20051;-67
2023/07/18 09:54:46;;;;;;;3.30;1.67;;;18.90;99.90;;;;;;5084548;28;20138;-67
2023/07/18 09:57:14;;;;;;;6.45;2.00;;;18.90;99.90;;;;;;5080224;28;20150;-66
2023/07/18 09:59:41;;;;;;;2.60;1.00;;;18.90;99.90;;;;;;5079000;28;20055;-67
2023/07/18 10:02:10;;;;;;;4.90;1.60;;;18.60;99.90;;;;;;5074826;28;20097;-66
2023/07/18 10:04:38;;;;;;;2.27;1.13;;;18.50;99.90;;;;;;5073725;28;20472;-65
2023/07/18 10:07:08;;;;;;;4.28;2.00;;;18.50;99.90;;;;;;5079755;28;20036;-65
2023/07/18 10:09:37;;;;;;;3.67;1.45;;;18.60;99.90;;;;;;5077865;28;20056;-64
2023/07/18 10:12:03;;;;;;;5.25;2.13;;;18.70;99.90;;;;;;5078345;28;20059;-66
2023/07/18 10:14:50;;;;;;;1.67;0.88;;;18.80;99.90;;;;;;5076157;28;20485;-65
2023/07/18 10:17:35;;;;;;;3.53;1.60;;;18.90;99.90;;;;;;5079580;28;20105;-66
2023/07/18 10:20:11;;;;;;;5.28;1.95;;;19.00;99.90;;;;;;5071781;28;20081;-65
2023/07/18 10:22:47;;;;;;;6.22;1.33;;;19.10;99.90;;;;;;5073515;28;20071;-64
2023/07/18 10:25:17;;;;;;;3.80;2.25;;;19.10;99.90;;;;;;5077096;28;20048;-66
2023/07/18 10:27:45;;;;;;;2.13;1.20;;;19.10;99.90;;;;;;5078658;28;20048;-65
2023/07/18 10:30:17;;;;;;;4.55;1.35;;;19.20;99.90;;;;;;5072550;28;20044;-65
2023/07/18 10:32:52;;;;;;;4.60;1.75;;;19.30;99.90;;;;;;5076114;28;20867;-64
2023/07/18 10:35:22;;;;;;;3.00;1.17;;;19.30;99.90;;;;;;5073511;28;20101;-65
2023/07/18 10:37:52;;;;;;;5.28;1.40;;;19.30;99.90;;;;;;5074220;28;20036;-65
2023/07/18 10:40:36;;;;;;;5.57;1.65;;;19.40;99.90;;;;;;5071923;28;20094;-67
2023/07/18 10:43:06;;;;;;;6.75;2.22;;;19.40;99.90;;;;;;5074220;28;20036;-67
2023/07/18 10:45:41;;;;;;;4.25;1.42;;;19.40;99.90;;;;;;5077764;28;20105;-64
2023/07/18 10:48:10;;;;;;;2.60;1.33;;;19.50;99.90;;;;;;5073691;28;20102;-65
2023/07/18 10:50:38;;;;;;;6.93;1.17;;;19.80;99.90;;;;;;5072259;28;20078;-65
2023/07/18 10:53:05;;;;;;;6.38;1.92;;;19.70;99.90;;;;;;5076383;28;20048;-65
2023/07/18 10:55:31;;;;;;;4.38;1.20;;;19.80;99.90;;;;;;5076047;28;20056;-65
2023/07/18 10:57:58;;;;;;;3.85;1.55;;;19.90;99.90;;;;;;5074872;28;20097;-65
2023/07/18 11:00:25;;;;;;;2.63;1.30;;;20.00;99.90;;;;;;5076817;28;20082;-65
2023/07/18 11:02:52;;;;;;;4.32;1.52;;;20.20;99.90;;;;;;5075965;28;20040;-65
2023/07/18 11:05:21;;;;;;;5.38;1.20;;;20.30;99.90;;;;;;5074655;28;20036;-66
2023/07/18 11:07:48;;;;;;;2.75;2.38;;;20.30;99.90;;;;;;5074941;28;20615;-66
2023/07/18 11:10:15;;;;;;;3.47;1.02;;;20.30;99.90;;;;;;5081412;28;20060;-67
2023/07/18 11:12:43;;;;;;;3.17;1.10;;;20.00;99.90;;;;;;5076343;28;20072;-67
2023/07/18 11:15:11;;;;;;;2.28;1.10;;;19.70;99.90;;;;;;5076441;28;20052;-65
2023/07/18 11:17:38;;;;;;;5.03;1.38;;;19.70;99.90;;;;;;5082342;28;20493;-65
2023/07/18 11:20:07;;;;;;;2.83;1.27;;;19.70;99.90;;;;;;5071206;28;20478;-65
2023/07/18 11:22:34;;;;;;;3.83;1.23;;;19.70;99.90;;;;;;5075935;28;20048;-66
2023/07/18 11:25:01;;;;;;;2.53;1.10;;;19.60;99.90;;;;;;5072253;28;20041;-67
2023/07/18 11:27:30;;;;;;;6.43;2.25;;;19.80;99.90;;;;;;5074999;28;20052;-65
2023/07/18 11:29:58;;;;;;;3.17;1.17;;;19.90;99.90;;;;;;5075183;28;20418;-65
2023/07/18 11:32:37;;;;;;;3.20;1.50;;;20.00;99.90;;;;;;5078714;28;20047;-65
2023/07/18 11:35:09;;;;;;;2.63;1.60;;;20.00;99.90;;;;;;5070397;28;20044;-64
2023/07/18 11:37:39;;;;;;;3.10;1.05;;;20.30;99.90;;;;;;5076696;28;20519;-65
2023/07/18 11:40:10;;;;;;;2.75;1.05;;;20.50;99.90;;;;;;5073493;28;20068;-65
2023/07/18 11:42:56;;;;;;;2.08;1.13;;;20.60;99.90;;;;;;5080365;28;20094;-65
2023/07/18 11:45:25;;;;;;;2.38;1.30;;;20.80;99.90;;;;;;5073176;28;20490;-67
2023/07/18 11:47:57;;;;;;;3.87;1.00;;;20.80;99.90;;;;;;5072510;28;20064;-65
2023/07/18 11:50:28;;;;;;;3.05;0.93;;;20.60;99.90;;;;;;5075409;28;20347;-68
2023/07/18 11:52:58;;;;;;;3.13;1.65;;;20.60;99.90;;;;;;5079546;28;20029;-65
2023/07/18 11:55:25;;;;;;;6.13;1.23;;;20.70;99.90;;;;;;5077426;28;20135;-65
2023/07/18 11:57:52;;;;;;;2.28;0.65;;;20.70;99.90;;;;;;5079596;28;20492;-65
2023/07/18 12:00:20;;;;;;;1.90;0.93;;;20.80;99.90;;;;;;5078704;28;20040;-65
2023/07/18 12:02:48;;;;;;;3.70;1.42;;;20.50;99.90;;;;;;5077215;28;20040;-66
2023/07/18 12:05:16;;;;;;;2.65;1.45;;;20.60;99.90;;;;;;5080905;28;20428;-65
2023/07/18 12:07:45;;;;;;;3.72;1.13;;;20.60;99.90;;;;;;5078388;28;20043;-68
2023/07/18 12:10:14;;;;;;;1.98;0.60;;;20.40;99.90;;;;;;5078021;28;20052;-65
2023/07/18 12:12:43;;;;;;;1.85;0.90;;;20.30;99.90;;;;;;5080251;28;20085;-68
2023/07/18 12:15:11;;;;;;;1.95;1.17;;;20.40;99.90;;;;;;5080613;28;20072;-65
2023/07/18 12:17:38;;;;;;;3.80;0.80;;;20.60;99.90;;;;;;5082650;28;20072;-68
2023/07/18 12:20:06;;;;;;;2.50;0.90;;;20.70;99.90;;;;;;5078703;28;20044;-65
2023/07/18 12:22:34;;;;;;;1.83;0.85;;;20.90;99.90;;;;;;5081240;28;20199;-64
2023/07/18 12:25:04;;;;;;;3.20;1.48;;;20.90;99.90;;;;;;5077056;28;20048;-65
2023/07/18 12:27:30;;;;;;;3.70;0.95;;;20.70;99.90;;;;;;5078939;28;20056;-65
2023/07/18 12:29:57;;;;;;;1.92;0.68;;;20.60;99.90;;;;;;5077353;28;20036;-64
2023/07/18 12:32:24;;;;;;;1.98;0.75;;;20.60;99.90;;;;;;5080472;28;20087;-67
2023/07/18 12:34:57;;;;;;;2.78;0.95;;;20.50;99.90;;;;;;5075373;28;20055;-65
2023/07/18 12:37:24;;;;;;;3.65;1.25;;;20.50;99.90;;;;;;5076844;28;20118;-66
2023/07/18 12:39:51;;;;;;;2.00;0.65;;;20.30;99.90;;;;;;5081383;28;20518;-67
2023/07/18 12:42:18;;;;;;;1.75;0.70;;;20.30;99.90;;;;;;5077332;28;20036;-65
2023/07/18 12:44:45;;;;;;;1.80;0.98;;;20.30;99.90;;;;;;5078240;28;20044;-65
2023/07/18 12:47:13;;;;;;;2.20;1.33;;;20.20;99.90;;;;;;5076721;28;20051;-65
2023/07/18 12:49:40;;;;;;;4.63;0.90;;;20.20;99.90;;;;;;5079195;28;20055;-67
2023/07/18 12:52:11;;;;;;;;;;;20.40;99.90;;;;;;5078500;28;20037;-65
2023/07/18 12:54:38;;;;;;;2.70;0.60;;;20.50;99.90;;;;;;5077449;28;19927;-66